Time;durP1;ratioP1;P1;durP2;ratioP2;P2;SDS_P1;SDS_P2;PMS_P1;PMS_P2;Temp;Humidity;BMP_temperature;BMP_pressure;BME280_temperature;BME280_humidity;BME280_pressure;Samples;Min_cycle;Max_cycle;Signal;HPM_P1;HPM_P2
2024/01/25 00:01:41;;;;;;;;;;;1.40;89.10;;;;;;5006264;28;87574;-49
2024/01/25 00:04:06;;;;;;;;;;;1.40;88.50;;;;;;5006193;28;87046;-48
2024/01/25 00:06:32;;;;;;;;;;;1.40;88.50;;;;;;5008626;28;87902;-52
2024/01/25 00:08:57;;;;;;;;;;;1.40;88.60;;;;;;5006174;28;87115;-49
2024/01/25 00:11:24;;;;;;;;;;;1.40;88.40;;;;;;5006720;28;87119;-48
2024/01/25 00:13:49;;;;;;;;;;;1.40;88.50;;;;;;5002366;28;87499;-48
2024/01/25 00:16:15;;;;;;;;;;;1.40;89.00;;;;;;5005723;28;87089;-49
2024/01/25 00:18:41;;;;;;;;;;;1.40;88.40;;;;;;5006463;28;87022;-50
2024/01/25 00:21:06;;;;;;;;;;;1.40;88.40;;;;;;5006238;28;87624;-48
2024/01/25 00:23:32;;;;;;;;;;;1.40;88.40;;;;;;5006174;28;86276;-48
2024/01/25 00:25:59;;;;;;;;;;;1.40;88.40;;;;;;5002374;28;86910;-47
2024/01/25 00:28:25;;;;;;;;;;;1.40;88.40;;;;;;5008757;28;88499;-48
2024/01/25 00:30:51;;;;;;;;;;;1.40;88.50;;;;;;5004583;28;88132;-49
2024/01/25 00:33:16;;;;;;;;;;;1.40;88.40;;;;;;5006666;28;87473;-49
2024/01/25 00:35:42;;;;;;;;;;;1.40;88.40;;;;;;5006363;28;86960;-48
2024/01/25 00:38:08;;;;;;;;;;;1.40;88.50;;;;;;5009644;28;87561;-49
2024/01/25 00:40:33;;;;;;;;;;;1.40;88.40;;;;;;5004813;28;87517;-50
2024/01/25 00:42:59;;;;;;;;;;;1.40;88.50;;;;;;5007871;28;87032;-49
2024/01/25 00:45:25;;;;;;;;;;;1.40;88.40;;;;;;5006419;28;87492;-49
2024/01/25 00:47:51;;;;;;;;;;;1.40;88.40;;;;;;5009240;28;86679;-48
2024/01/25 00:50:17;;;;;;;;;;;1.40;88.40;;;;;;5011584;28;86894;-49
2024/01/25 00:52:45;;;;;;;;;;;1.40;88.40;;;;;;5009107;28;88491;-49
2024/01/25 00:55:11;;;;;;;;;;;1.40;88.50;;;;;;5008602;28;88142;-51
2024/01/25 00:57:37;;;;;;;;;;;1.40;88.50;;;;;;5009129;28;89279;-49
2024/01/25 01:00:04;;;;;;;;;;;1.40;88.40;;;;;;5007214;28;87601;-47
2024/01/25 01:02:35;;;;;;;;;;;1.40;88.50;;;;;;5005799;28;86993;-48
2024/01/25 01:05:00;;;;;;;;;;;1.40;88.50;;;;;;5008101;28;89712;-48
2024/01/25 01:07:26;;;;;;;;;;;1.40;88.50;;;;;;5008347;28;87509;-48
2024/01/25 01:09:52;;;;;;;;;;;1.40;88.50;;;;;;5011724;28;86952;-48
2024/01/25 01:12:17;;;;;;;;;;;1.40;88.50;;;;;;5009419;28;86557;-47
2024/01/25 01:14:43;;;;;;;;;;;1.40;88.60;;;;;;5008663;28;87039;-48
2024/01/25 01:17:08;;;;;;;;;;;1.40;88.70;;;;;;5009233;28;86947;-48
2024/01/25 01:19:34;;;;;;;;;;;1.40;88.50;;;;;;5008046;28;89534;-50
2024/01/25 01:21:59;;;;;;;;;;;1.40;88.60;;;;;;5009360;28;87032;-48
2024/01/25 01:24:25;;;;;;;;;;;1.40;88.60;;;;;;5009169;28;86902;-49
2024/01/25 01:26:51;;;;;;;;;;;1.40;88.60;;;;;;5008766;28;87415;-49
2024/01/25 01:29:17;;;;;;;;;;;1.40;88.60;;;;;;5008104;28;86989;-48
2024/01/25 01:31:43;;;;;;;;;;;1.40;88.60;;;;;;5002855;28;87720;-48
2024/01/25 01:34:08;;;;;;;;;;;1.40;88.60;;;;;;5008343;28;86961;-49
2024/01/25 01:36:34;;;;;;;;;;;1.40;88.50;;;;;;5009590;28;86690;-50
2024/01/25 01:38:59;;;;;;;;;;;1.30;88.60;;;;;;5005841;28;87416;-48
2024/01/25 01:41:25;;;;;;;;;;;1.40;88.60;;;;;;5008510;28;86999;-50
2024/01/25 01:43:54;;;;;;;;;;;1.40;88.50;;;;;;5007352;28;88412;-51
2024/01/25 01:46:34;;;;;;;;;;;1.30;88.50;;;;;;5006147;28;87486;-47
2024/01/25 01:49:00;;;;;;;;;;;1.30;88.50;;;;;;5007840;28;87091;-49
2024/01/25 01:51:25;;;;;;;;;;;1.40;88.60;;;;;;5008612;28;87116;-48
2024/01/25 01:53:52;;;;;;;;;;;1.30;88.50;;;;;;5010642;28;86860;-51
2024/01/25 01:56:17;;;;;;;;;;;1.40;88.50;;;;;;5008398;28;88045;-49
2024/01/25 01:58:43;;;;;;;;;;;1.30;88.60;;;;;;5008000;28;87466;-49
2024/01/25 02:01:09;;;;;;;;;;;1.40;88.50;;;;;;5007030;28;86245;-49
2024/01/25 02:03:34;;;;;;;;;;;1.40;88.50;;;;;;5008536;28;86927;-51
2024/01/25 02:06:02;;;;;;;;;;;1.40;88.50;;;;;;5008067;28;87978;-50
2024/01/25 02:08:31;;;;;;;;;;;1.30;88.60;;;;;;5007203;28;87988;-50
2024/01/25 02:10:56;;;;;;;;;;;1.30;88.60;;;;;;5007950;28;87892;-48
2024/01/25 02:13:22;;;;;;;;;;;1.40;88.60;;;;;;5007784;28;88708;-49
2024/01/25 02:15:48;;;;;;;;;;;1.40;88.60;;;;;;5010410;28;86774;-48
2024/01/25 02:18:14;;;;;;;;;;;1.40;88.50;;;;;;5007989;28;87309;-49
2024/01/25 02:20:40;;;;;;;;;;;1.30;88.60;;;;;;5008193;28;86986;-50
2024/01/25 02:23:06;;;;;;;;;;;1.30;88.60;;;;;;5008160;28;87796;-51
2024/01/25 02:25:31;;;;;;;;;;;1.30;88.70;;;;;;5008075;28;87861;-48
2024/01/25 02:27:57;;;;;;;;;;;1.30;88.60;;;;;;5008084;28;87425;-47
2024/01/25 02:30:22;;;;;;;;;;;1.30;88.70;;;;;;5007519;28;87190;-47
2024/01/25 02:32:48;;;;;;;;;;;1.30;88.60;;;;;;5005163;28;88526;-48
2024/01/25 02:35:13;;;;;;;;;;;1.40;88.70;;;;;;5008108;28;86955;-48
2024/01/25 02:37:39;;;;;;;;;;;1.30;88.50;;;;;;5010378;28;87748;-48
2024/01/25 02:40:04;;;;;;;;;;;1.30;88.70;;;;;;5008084;28;86957;-49
2024/01/25 02:42:30;;;;;;;;;;;1.40;88.70;;;;;;5007413;28;88110;-49
2024/01/25 02:44:55;;;;;;;;;;;1.30;88.70;;;;;;5007581;28;87443;-48
2024/01/25 02:47:21;;;;;;;;;;;1.30;88.70;;;;;;5004414;28;87699;-49
2024/01/25 02:49:47;;;;;;;;;;;1.30;88.80;;;;;;5007835;28;86485;-48
2024/01/25 02:52:12;;;;;;;;;;;1.30;88.80;;;;;;5007127;28;87483;-50
2024/01/25 02:54:38;;;;;;;;;;;1.30;88.70;;;;;;5008069;28;86976;-47
2024/01/25 02:57:04;;;;;;;;;;;1.30;88.70;;;;;;5007927;28;87837;-49
2024/01/25 02:59:29;;;;;;;;;;;1.30;88.70;;;;;;5007154;28;86909;-47
2024/01/25 03:01:55;;;;;;;;;;;1.40;88.70;;;;;;5005793;28;87065;-47
2024/01/25 03:04:20;;;;;;;;;;;1.30;88.70;;;;;;5004757;28;87715;-51
2024/01/25 03:06:46;;;;;;;;;;;1.40;88.70;;;;;;5007728;28;87665;-49
2024/01/25 03:09:11;;;;;;;;;;;1.30;88.60;;;;;;5006916;28;87692;-48
2024/01/25 03:11:37;;;;;;;;;;;1.30;88.70;;;;;;5007135;28;87547;-48
2024/01/25 03:14:02;;;;;;;;;;;1.30;88.70;;;;;;5007202;28;86382;-48
2024/01/25 03:16:28;;;;;;;;;;;1.30;88.80;;;;;;5001257;28;87080;-49
2024/01/25 03:18:54;;;;;;;;;;;1.40;88.60;;;;;;5009966;28;87410;-48
2024/01/25 03:21:19;;;;;;;;;;;1.30;88.70;;;;;;5006488;28;88187;-50
2024/01/25 03:23:45;;;;;;;;;;;1.30;88.60;;;;;;5006925;28;87115;-49
2024/01/25 03:26:10;;;;;;;;;;;1.30;88.80;;;;;;5007368;28;87052;-48
2024/01/25 03:28:37;;;;;;;;;;;1.40;88.80;;;;;;5007002;28;87969;-49
2024/01/25 03:31:02;;;;;;;;;;;1.30;88.80;;;;;;5005715;27;87615;-51
2024/01/25 03:33:28;;;;;;;;;;;1.30;88.70;;;;;;5005150;28;86988;-48
2024/01/25 03:35:54;;;;;;;;;;;1.30;88.70;;;;;;5006605;28;87975;-49
2024/01/25 03:38:20;;;;;;;;;;;1.30;88.80;;;;;;5007102;28;87792;-48
2024/01/25 03:40:45;;;;;;;;;;;1.30;88.70;;;;;;5010039;28;86974;-46
2024/01/25 03:43:11;;;;;;;;;;;1.30;88.80;;;;;;5006533;28;87467;-49
2024/01/25 03:45:36;;;;;;;;;;;1.30;88.80;;;;;;5005863;28;87929;-48
2024/01/25 03:48:02;;;;;;;;;;;1.30;88.70;;;;;;5003597;28;88756;-49
2024/01/25 03:50:28;;;;;;;;;;;1.30;88.70;;;;;;5004620;28;88552;-50
2024/01/25 03:52:53;;;;;;;;;;;1.30;88.70;;;;;;5006206;28;87032;-48
2024/01/25 03:55:19;;;;;;;;;;;1.30;88.80;;;;;;5006457;28;87029;-51
2024/01/25 03:57:44;;;;;;;;;;;1.30;88.70;;;;;;5006472;28;87561;-48
2024/01/25 04:00:11;;;;;;;;;;;1.30;88.60;;;;;;5006893;28;86943;-48
2024/01/25 04:02:37;;;;;;;;;;;1.30;88.70;;;;;;5008010;28;87869;-49
2024/01/25 04:05:03;;;;;;;;;;;1.30;88.70;;;;;;5004120;28;86915;-49
2024/01/25 04:07:28;;;;;;;;;;;1.30;88.90;;;;;;5005446;28;86937;-51
2024/01/25 04:09:54;;;;;;;;;;;1.30;88.80;;;;;;5004849;28;88484;-49
2024/01/25 04:12:19;;;;;;;;;;;1.30;88.80;;;;;;5005277;28;86947;-49
2024/01/25 04:14:45;;;;;;;;;;;1.30;88.80;;;;;;5006472;28;87878;-48
2024/01/25 04:17:10;;;;;;;;;;;1.30;88.70;;;;;;5002758;28;87913;-49
2024/01/25 04:19:36;;;;;;;;;;;1.30;88.80;;;;;;5004654;28;87069;-49
2024/01/25 04:22:02;;;;;;;;;;;1.30;88.80;;;;;;5005815;28;86872;-47
2024/01/25 04:24:27;;;;;;;;;;;1.30;88.70;;;;;;5006931;28;87266;-48
2024/01/25 04:26:53;;;;;;;;;;;1.30;88.80;;;;;;5006912;28;86530;-48
2024/01/25 04:29:18;;;;;;;;;;;1.30;88.70;;;;;;5006037;28;86974;-49
2024/01/25 04:31:45;;;;;;;;;;;1.30;88.70;;;;;;5002542;28;87491;-49
2024/01/25 04:34:10;;;;;;;;;;;1.30;88.80;;;;;;5005020;28;87827;-49
2024/01/25 04:36:36;;;;;;;;;;;1.30;88.70;;;;;;5005559;28;88611;-49
2024/01/25 04:39:02;;;;;;;;;;;1.30;88.70;;;;;;5005912;28;87156;-48
2024/01/25 04:41:27;;;;;;;;;;;1.30;88.80;;;;;;5006355;28;86874;-49
2024/01/25 04:43:53;;;;;;;;;;;1.30;88.80;;;;;;5005898;28;86931;-48
2024/01/25 04:46:18;;;;;;;;;;;1.30;88.80;;;;;;5009056;28;86839;-50
2024/01/25 04:48:45;;;;;;;;;;;1.30;88.80;;;;;;5004716;28;87469;-48
2024/01/25 04:51:17;;;;;;;;;;;1.30;88.80;;;;;;5006352;28;86272;-49
2024/01/25 04:53:43;;;;;;;;;;;1.30;88.90;;;;;;5003019;28;86995;-49
2024/01/25 04:56:09;;;;;;;;;;;1.30;88.80;;;;;;5005368;28;88936;-48
2024/01/25 04:58:34;;;;;;;;;;;1.30;88.80;;;;;;5005341;28;87944;-49
2024/01/25 05:01:00;;;;;;;;;;;1.30;88.80;;;;;;5005636;28;88707;-48
2024/01/25 05:03:26;;;;;;;;;;;1.30;88.80;;;;;;5002059;28;87044;-48
2024/01/25 05:05:51;;;;;;;;;;;1.30;88.80;;;;;;5009004;28;87004;-50
2024/01/25 05:08:17;;;;;;;;;;;1.30;88.80;;;;;;5005051;28;87303;-51
2024/01/25 05:10:42;;;;;;;;;;;1.30;88.80;;;;;;5005984;28;86895;-49
2024/01/25 05:13:09;;;;;;;;;;;1.30;88.80;;;;;;5005788;28;86992;-47
2024/01/25 05:15:34;;;;;;;;;;;1.30;88.80;;;;;;5005619;28;87881;-48
2024/01/25 05:18:00;;;;;;;;;;;1.30;88.70;;;;;;5003283;28;87250;-48
2024/01/25 05:20:32;;;;;;;;;;;1.30;88.80;;;;;;5007741;28;87764;-49
2024/01/25 05:23:04;;;;;;;;;;;1.30;89.40;;;;;;5004720;28;88441;-48
2024/01/25 05:25:30;;;;;;;;;;;1.30;88.80;;;;;;5008784;28;87002;-49
2024/01/25 05:27:56;;;;;;;;;;;1.30;88.90;;;;;;5007921;28;86898;-48
2024/01/25 05:30:22;;;;;;;;;;;1.30;88.80;;;;;;5007922;28;87103;-48
2024/01/25 05:32:49;;;;;;;;;;;1.30;88.80;;;;;;5007280;28;87647;-49
2024/01/25 05:35:15;;;;;;;;;;;1.30;88.90;;;;;;5004383;28;87522;-50
2024/01/25 05:37:40;;;;;;;;;;;1.30;88.90;;;;;;5008437;28;86950;-48
2024/01/25 05:40:06;;;;;;;;;;;1.30;88.80;;;;;;5007539;28;86832;-49
2024/01/25 05:42:32;;;;;;;;;;;1.30;88.70;;;;;;5008098;28;86972;-49
2024/01/25 05:44:58;;;;;;;;;;;1.30;88.80;;;;;;5008147;28;86930;-49
2024/01/25 05:47:23;;;;;;;;;;;1.30;88.80;;;;;;5008078;28;87877;-48
2024/01/25 05:49:49;;;;;;;;;;;1.30;88.90;;;;;;5007525;28;87721;-48
2024/01/25 05:52:15;;;;;;;;;;;1.30;89.00;;;;;;5004790;28;87003;-48
2024/01/25 05:54:40;;;;;;;;;;;1.30;88.90;;;;;;5007065;28;87407;-48
2024/01/25 05:57:06;;;;;;;;;;;1.30;88.80;;;;;;5008633;28;87103;-52
2024/01/25 05:59:31;;;;;;;;;;;1.30;88.90;;;;;;5008754;28;86876;-48
2024/01/25 06:01:57;;;;;;;;;;;1.30;88.90;;;;;;5008197;28;88367;-50
2024/01/25 06:04:22;;;;;;;;;;;1.30;89.00;;;;;;5005826;28;86120;-50
2024/01/25 06:06:48;;;;;;;;;;;1.30;88.90;;;;;;5008925;28;87047;-49
2024/01/25 06:09:16;;;;;;;;;;;1.30;89.00;;;;;;5007630;28;87606;-49
2024/01/25 06:11:43;;;;;;;;;;;1.30;89.00;;;;;;5010416;28;88026;-47
2024/01/25 06:14:09;;;;;;;;;;;1.30;88.80;;;;;;5008092;28;87512;-50
2024/01/25 06:16:34;;;;;;;;;;;1.30;89.00;;;;;;5008333;28;86940;-48
2024/01/25 06:19:01;;;;;;;;;;;1.30;89.10;;;;;;5007661;28;87010;-49
2024/01/25 06:21:26;;;;;;;;;;;1.30;89.00;;;;;;5007922;28;87469;-48
2024/01/25 06:23:52;;;;;;;;;;;1.30;88.90;;;;;;5008416;28;87014;-49
2024/01/25 06:26:18;;;;;;;;;;;1.30;89.00;;;;;;5008202;28;86890;-50
2024/01/25 06:28:43;;;;;;;;;;;1.30;89.20;;;;;;5008280;28;86849;-47
2024/01/25 06:31:09;;;;;;;;;;;1.30;89.10;;;;;;5008070;28;87078;-48
2024/01/25 06:33:34;;;;;;;;;;;1.30;89.00;;;;;;5010021;28;87164;-50
2024/01/25 06:36:00;;;;;;;;;;;1.30;88.90;;;;;;5007549;28;87817;-49
2024/01/25 06:38:25;;;;;;;;;;;1.30;89.20;;;;;;5006945;28;87648;-49
2024/01/25 06:40:51;;;;;;;;;;;1.30;89.20;;;;;;5005627;28;88102;-50
2024/01/25 06:43:16;;;;;;;;;;;1.30;89.20;;;;;;5007505;28;87067;-49
2024/01/25 06:45:42;;;;;;;;;;;1.30;89.00;;;;;;5008034;28;87011;-48
2024/01/25 06:48:10;;;;;;;;;;;1.30;89.20;;;;;;5007268;28;87433;-50
2024/01/25 06:50:36;;;;;;;;;;;1.30;89.10;;;;;;5006554;28;87160;-47
2024/01/25 06:53:02;;;;;;;;;;;1.30;89.10;;;;;;5007820;28;87110;-49
2024/01/25 06:55:28;;;;;;;;;;;1.30;89.10;;;;;;5010425;28;87471;-49
2024/01/25 06:57:53;;;;;;;;;;;1.30;89.10;;;;;;5007773;28;86887;-51
2024/01/25 07:00:20;;;;;;;;;;;1.30;89.10;;;;;;5006440;28;89570;-52
2024/01/25 07:02:46;;;;;;;;;;;1.30;89.00;;;;;;5007391;28;87100;-48
2024/01/25 07:05:12;;;;;;;;;;;1.30;89.10;;;;;;5004618;28;86950;-52
2024/01/25 07:07:38;;;;;;;;;;;1.30;89.10;;;;;;5007001;28;87352;-48
2024/01/25 07:10:05;;;;;;;;;;;1.30;89.00;;;;;;5007051;28;86999;-50
2024/01/25 07:12:30;;;;;;;;;;;1.30;89.00;;;;;;5006487;28;87817;-49
2024/01/25 07:14:56;;;;;;;;;;;1.30;89.60;;;;;;5009865;28;87639;-50
2024/01/25 07:17:21;;;;;;;;;;;1.30;88.90;;;;;;5007820;28;87186;-50
2024/01/25 07:19:47;;;;;;;;;;;1.40;89.10;;;;;;5006468;28;87560;-48
2024/01/25 07:22:14;;;;;;;;;;;1.30;89.10;;;;;;5007227;28;87055;-50
2024/01/25 07:24:40;;;;;;;;;;;1.30;89.00;;;;;;5006732;28;87823;-52
2024/01/25 07:27:05;;;;;;;;;;;1.40;89.00;;;;;;5006899;28;87064;-48
2024/01/25 07:29:31;;;;;;;;;;;1.40;89.10;;;;;;5007055;28;87025;-47
2024/01/25 07:31:56;;;;;;;;;;;1.40;89.10;;;;;;5006780;28;87009;-48
2024/01/25 07:34:22;;;;;;;;;;;1.40;89.10;;;;;;5004587;28;88556;-51
2024/01/25 07:36:48;;;;;;;;;;;1.40;89.00;;;;;;5009867;28;87032;-48
2024/01/25 07:39:13;;;;;;;;;;;1.40;89.00;;;;;;5006142;28;87420;-48
2024/01/25 07:41:39;;;;;;;;;;;1.40;89.10;;;;;;5007258;28;86235;-48
2024/01/25 07:44:05;;;;;;;;;;;1.40;89.00;;;;;;5006846;28;86796;-47
2024/01/25 07:46:31;;;;;;;;;;;1.40;89.50;;;;;;5003217;28;88511;-50
2024/01/25 07:48:57;;;;;;;;;;;1.40;89.00;;;;;;5002067;28;87779;-48
2024/01/25 07:51:22;;;;;;;;;;;1.40;88.90;;;;;;5004627;28;87599;-49
2024/01/25 07:53:48;;;;;;;;;;;1.40;89.10;;;;;;5005939;28;88606;-48
2024/01/25 07:56:13;;;;;;;;;;;1.40;89.10;;;;;;5007022;28;87624;-48
2024/01/25 07:58:40;;;;;;;;;;;1.40;89.10;;;;;;5009519;28;87170;-48
2024/01/25 08:01:06;;;;;;;;;;;1.40;89.30;;;;;;5006279;28;87252;-47
2024/01/25 08:03:32;;;;;;;;;;;1.40;89.30;;;;;;5006694;28;87454;-48
2024/01/25 08:05:58;;;;;;;;;;;1.40;89.40;;;;;;5005197;28;87106;-52
2024/01/25 08:08:24;;;;;;;;;;;1.40;89.50;;;;;;5005667;28;86938;-48
2024/01/25 08:10:49;;;;;;;;;;;1.40;89.50;;;;;;5005453;28;88006;-48
2024/01/25 08:13:15;;;;;;;;;;;1.40;89.50;;;;;;5001321;28;89639;-50
2024/01/25 08:15:40;;;;;;;;;;;1.40;89.50;;;;;;5006405;28;86950;-50
2024/01/25 08:18:06;;;;;;;;;;;1.40;89.60;;;;;;5005673;28;87113;-51
2024/01/25 08:20:32;;;;;;;;;;;1.40;89.60;;;;;;5007711;28;88435;-49
2024/01/25 08:22:58;;;;;;;;;;;1.40;89.60;;;;;;5004821;28;87068;-49
2024/01/25 08:25:24;;;;;;;;;;;1.40;89.70;;;;;;5003413;28;87419;-49
2024/01/25 08:27:50;;;;;;;;;;;1.40;89.70;;;;;;5005079;28;87038;-48
2024/01/25 08:30:15;;;;;;;;;;;1.40;89.70;;;;;;5005806;28;86867;-47
2024/01/25 08:32:41;;;;;;;;;;;1.40;89.70;;;;;;5004875;28;87335;-49
2024/01/25 08:35:06;;;;;;;;;;;1.40;89.70;;;;;;5005720;28;87083;-49
2024/01/25 08:37:32;;;;;;;;;;;1.40;89.70;;;;;;5004353;28;88349;-50
2024/01/25 08:39:58;;;;;;;;;;;1.40;89.80;;;;;;5005786;28;88479;-50
2024/01/25 08:42:23;;;;;;;;;;;1.40;89.60;;;;;;5009108;28;86928;-49
2024/01/25 08:44:49;;;;;;;;;;;1.40;89.70;;;;;;5005682;28;88500;-47
2024/01/25 08:47:15;;;;;;;;;;;1.40;89.80;;;;;;5005057;28;87026;-48
2024/01/25 08:49:41;;;;;;;;;;;1.40;89.80;;;;;;5006273;28;86915;-49
2024/01/25 08:52:06;;;;;;;;;;;1.40;89.90;;;;;;5004332;28;88387;-48
2024/01/25 08:54:32;;;;;;;;;;;1.50;90.00;;;;;;5007382;28;86359;-50
2024/01/25 08:56:58;;;;;;;;;;;1.40;89.80;;;;;;5009599;28;87127;-48
2024/01/25 08:59:23;;;;;;;;;;;1.40;89.90;;;;;;5007599;28;90242;-48
2024/01/25 09:01:49;;;;;;;;;;;1.40;90.00;;;;;;5008792;28;87974;-48
2024/01/25 09:04:14;;;;;;;;;;;1.50;89.80;;;;;;5012130;28;87594;-46
2024/01/25 09:06:40;;;;;;;;;;;1.50;89.80;;;;;;5008449;28;87067;-48
2024/01/25 09:09:06;;;;;;;;;;;1.50;89.90;;;;;;5007520;28;89597;-49
2024/01/25 09:11:32;;;;;;;;;;;1.50;89.60;;;;;;5004912;28;88526;-48
2024/01/25 09:13:57;;;;;;;;;;;1.50;90.00;;;;;;5008770;28;87098;-49
2024/01/25 09:16:23;;;;;;;;;;;1.50;89.80;;;;;;5009087;28;87161;-49
2024/01/25 09:18:48;;;;;;;;;;;1.50;89.80;;;;;;5009237;28;87630;-47
2024/01/25 09:21:14;;;;;;;;;;;1.50;90.00;;;;;;5008362;28;87049;-47
2024/01/25 09:23:40;;;;;;;;;;;1.50;90.00;;;;;;5011290;28;87770;-48
2024/01/25 09:26:05;;;;;;;;;;;1.50;90.00;;;;;;5007542;28;87933;-49
2024/01/25 09:28:31;;;;;;;;;;;1.50;89.90;;;;;;5008164;28;88744;-46
2024/01/25 09:30:56;;;;;;;;;;;1.50;90.10;;;;;;5008629;28;87450;-46
2024/01/25 09:33:22;;;;;;;;;;;1.60;90.00;;;;;;5008743;28;86903;-48
2024/01/25 09:35:47;;;;;;;;;;;1.60;89.90;;;;;;5008332;28;86970;-47
2024/01/25 09:38:13;;;;;;;;;;;1.60;89.90;;;;;;5008065;28;88901;-50
2024/01/25 09:40:39;;;;;;;;;;;1.60;90.10;;;;;;5007680;28;86974;-48
2024/01/25 09:43:05;;;;;;;;;;;1.60;90.00;;;;;;5008017;28;87977;-48
2024/01/25 09:45:31;;;;;;;;;;;1.60;90.00;;;;;;5011473;28;87451;-47
2024/01/25 09:47:57;;;;;;;;;;;1.60;90.20;;;;;;5008385;28;86954;-48
2024/01/25 09:50:22;;;;;;;;;;;1.60;90.00;;;;;;5007135;28;89412;-48
2024/01/25 09:52:53;;;;;;;;;;;1.60;90.00;;;;;;5007294;28;86878;-47
2024/01/25 09:55:21;;;;;;;;;;;1.60;90.00;;;;;;5008643;28;87207;-46
2024/01/25 09:57:49;;;;;;;;;;;1.60;90.20;;;;;;5008125;28;87674;-47
2024/01/25 10:00:15;;;;;;;;;;;1.60;90.10;;;;;;5008545;28;87005;-47
2024/01/25 10:02:41;;;;;;;;;;;1.60;90.00;;;;;;5008240;28;87170;-47
2024/01/25 10:05:06;;;;;;;;;;;1.60;90.10;;;;;;5007740;28;88563;-48
2024/01/25 10:07:50;;;;;;;;;;;1.60;90.20;;;;;;5011608;28;86352;-48
2024/01/25 10:10:15;;;;;;;;;;;1.60;90.10;;;;;;5007593;28;87548;-48
2024/01/25 10:12:42;;;;;;;;;;;1.60;90.10;;;;;;5008172;28;87003;-48
2024/01/25 10:15:08;;;;;;;;;;;1.60;90.20;;;;;;5007659;28;87931;-48
2024/01/25 10:17:33;;;;;;;;;;;1.60;90.10;;;;;;5007276;28;88639;-47
2024/01/25 10:19:59;;;;;;;;;;;1.60;90.20;;;;;;5008023;28;87185;-48
2024/01/25 10:22:25;;;;;;;;;;;1.60;90.20;;;;;;5007262;28;87771;-49
2024/01/25 10:24:50;;;;;;;;;;;1.60;90.20;;;;;;5007785;28;87438;-49
2024/01/25 10:27:16;;;;;;;;;;;1.60;90.30;;;;;;5007650;28;87018;-47
2024/01/25 10:29:42;;;;;;;;;;;1.60;90.20;;;;;;5010660;28;86932;-46
2024/01/25 10:32:08;;;;;;;;;;;1.60;90.20;;;;;;5008326;28;86255;-48
2024/01/25 10:34:35;;;;;;;;;;;1.70;90.30;;;;;;5007425;28;87802;-46
2024/01/25 10:37:02;;;;;;;;;;;1.60;90.20;;;;;;5004810;28;87681;-48
2024/01/25 10:39:29;;;;;;;;;;;1.60;90.30;;;;;;5006746;28;88027;-47
2024/01/25 10:41:55;;;;;;;;;;;1.70;90.30;;;;;;5008063;28;87701;-46
2024/01/25 10:44:21;;;;;;;;;;;1.60;90.30;;;;;;5007654;28;87472;-47
2024/01/25 10:46:47;;;;;;;;;;;1.60;90.30;;;;;;5007846;28;87017;-48
2024/01/25 10:49:13;;;;;;;;;;;1.60;90.40;;;;;;5007573;28;87784;-48
2024/01/25 10:51:39;;;;;;;;;;;1.60;90.40;;;;;;5010179;28;87449;-46
2024/01/25 10:54:06;;;;;;;;;;;1.70;90.30;;;;;;5006866;28;87844;-49
2024/01/25 10:56:32;;;;;;;;;;;1.70;90.20;;;;;;5007260;28;87830;-47
2024/01/25 10:58:59;;;;;;;;;;;1.70;90.30;;;;;;5005383;28;87007;-48
2024/01/25 11:01:26;;;;;;;;;;;1.70;90.30;;;;;;5007575;28;86898;-48
2024/01/25 11:03:52;;;;;;;;;;;1.70;90.30;;;;;;5006523;28;88356;-48
2024/01/25 11:06:20;;;;;;;;;;;1.70;90.30;;;;;;5007461;28;87000;-47
2024/01/25 11:08:45;;;;;;;;;;;1.70;90.30;;;;;;5006299;28;86746;-47
2024/01/25 11:11:12;;;;;;;;;;;1.70;90.30;;;;;;5006746;28;87725;-49
2024/01/25 11:13:41;;;;;;;;;;;1.70;90.30;;;;;;5010237;28;86882;-48
2024/01/25 11:16:17;;;;;;;;;;;1.70;90.40;;;;;;5003537;28;87627;-48
2024/01/25 11:18:49;;;;;;;;;;;1.70;90.30;;;;;;5006371;28;86963;-48
2024/01/25 11:21:22;;;;;;;;;;;1.80;90.30;;;;;;5007657;28;86807;-47
2024/01/25 11:23:47;;;;;;;;;;;1.70;90.30;;;;;;5006198;28;88716;-48
2024/01/25 11:26:13;;;;;;;;;;;1.70;90.40;;;;;;5007332;28;86857;-53
2024/01/25 11:28:38;;;;;;;;;;;1.70;90.50;;;;;;5006673;28;88803;-49
2024/01/25 11:31:04;;;;;;;;;;;1.80;90.40;;;;;;5006903;28;87495;-48
2024/01/25 11:33:30;;;;;;;;;;;1.80;90.30;;;;;;5009829;28;86994;-48
2024/01/25 11:35:55;;;;;;;;;;;1.80;90.50;;;;;;5006862;28;87234;-49
2024/01/25 11:38:21;;;;;;;;;;;1.80;90.50;;;;;;5005583;28;87055;-47
2024/01/25 11:40:46;;;;;;;;;;;1.80;90.40;;;;;;5007238;28;86898;-50
2024/01/25 11:43:14;;;;;;;;;;;1.80;90.50;;;;;;5006737;28;87181;-48
2024/01/25 11:45:42;;;;;;;;;;;1.80;90.40;;;;;;5007337;28;86177;-47
2024/01/25 11:48:08;;;;;;;;;;;1.80;90.40;;;;;;5006356;28;87164;-49
2024/01/25 11:50:33;;;;;;;;;;;1.80;90.50;;;;;;5006168;28;87747;-49
2024/01/25 11:52:59;;;;;;;;;;;1.80;90.40;;;;;;5005801;28;87953;-47
2024/01/25 11:55:24;;;;;;;;;;;1.80;90.40;;;;;;5009024;28;87611;-48
2024/01/25 11:57:50;;;;;;;;;;;1.80;90.50;;;;;;5006183;28;86991;-48
2024/01/25 12:00:16;;;;;;;;;;;1.80;90.50;;;;;;5006971;28;87160;-50
2024/01/25 12:02:42;;;;;;;;;;;1.90;90.50;;;;;;4999048;28;87423;-49
2024/01/25 12:05:09;;;;;;;;;;;1.80;90.50;;;;;;5005800;28;86942;-49
2024/01/25 12:07:36;;;;;;;;;;;1.90;90.50;;;;;;5006789;28;86926;-50
2024/01/25 12:10:06;;;;;;;;;;;1.80;90.50;;;;;;5003002;28;87753;-50
2024/01/25 12:12:31;;;;;;;;;;;1.90;90.50;;;;;;5005445;28;87044;-50
2024/01/25 12:14:57;;;;;;;;;;;1.90;90.50;;;;;;5006344;28;86776;-47
2024/01/25 12:17:23;;;;;;;;;;;1.90;90.60;;;;;;5008258;28;89474;-48
2024/01/25 12:19:48;;;;;;;;;;;1.90;90.50;;;;;;5004936;28;87671;-48
2024/01/25 12:22:19;;;;;;;;;;;1.90;90.50;;;;;;5005659;28;87520;-48
2024/01/25 12:24:46;;;;;;;;;;;1.90;90.50;;;;;;5006086;28;87069;-50
2024/01/25 12:27:11;;;;;;;;;;;1.90;90.50;;;;;;5006575;28;87031;-49
2024/01/25 12:29:37;;;;;;;;;;;1.90;90.50;;;;;;5008363;28;87463;-47
2024/01/25 12:32:02;;;;;;;;;;;1.90;90.50;;;;;;5009758;28;86945;-49
2024/01/25 12:34:28;;;;;;;;;;;2.00;90.60;;;;;;5009017;28;86757;-50
2024/01/25 12:36:54;;;;;;;;;;;2.00;90.60;;;;;;5009337;28;88515;-48
2024/01/25 12:39:20;;;;;;;;;;;1.90;90.50;;;;;;5009442;28;87066;-47
2024/01/25 12:41:45;;;;;;;;;;;2.00;90.50;;;;;;5008006;28;87986;-47
2024/01/25 12:44:11;;;;;;;;;;;2.00;90.50;;;;;;5008964;28;87155;-50
2024/01/25 12:46:36;;;;;;;;;;;2.00;90.40;;;;;;5009772;28;86915;-47
2024/01/25 12:49:03;;;;;;;;;;;2.00;90.50;;;;;;5007656;28;89240;-48
2024/01/25 12:51:29;;;;;;;;;;;2.10;90.50;;;;;;5009718;28;86974;-48
2024/01/25 12:53:55;;;;;;;;;;;2.10;90.50;;;;;;5009356;28;87006;-48
2024/01/25 12:56:20;;;;;;;;;;;2.10;90.50;;;;;;5008831;28;87410;-47
2024/01/25 12:58:46;;;;;;;;;;;2.10;90.50;;;;;;5009571;28;87774;-47
2024/01/25 13:01:12;;;;;;;;;;;2.10;90.60;;;;;;5012274;28;87126;-48
2024/01/25 13:03:37;;;;;;;;;;;2.10;90.50;;;;;;5009480;28;87082;-48
2024/01/25 13:06:03;;;;;;;;;;;2.10;90.40;;;;;;5008984;28;87901;-48
2024/01/25 13:08:28;;;;;;;;;;;2.10;90.50;;;;;;5007722;28;88408;-52
2024/01/25 13:10:54;;;;;;;;;;;2.10;90.50;;;;;;5008441;28;87028;-50
2024/01/25 13:13:20;;;;;;;;;;;2.10;90.50;;;;;;5008892;28;87068;-47
2024/01/25 13:15:46;;;;;;;;;;;2.10;90.60;;;;;;5008567;28;87312;-49
2024/01/25 13:18:11;;;;;;;;;;;2.10;90.60;;;;;;5008399;28;86958;-48
2024/01/25 13:20:37;;;;;;;;;;;2.10;90.60;;;;;;5010902;28;87726;-49
2024/01/25 13:23:02;;;;;;;;;;;2.10;90.60;;;;;;5009025;28;86336;-48
2024/01/25 13:25:28;;;;;;;;;;;2.10;90.60;;;;;;5006064;28;87326;-48
2024/01/25 13:27:53;;;;;;;;;;;2.10;90.70;;;;;;5008779;28;87485;-48
2024/01/25 13:30:19;;;;;;;;;;;2.10;90.70;;;;;;5008452;28;87922;-50
2024/01/25 13:32:44;;;;;;;;;;;2.10;90.60;;;;;;5008126;28;88309;-49
2024/01/25 13:35:10;;;;;;;;;;;2.10;90.70;;;;;;5008140;28;87442;-49
2024/01/25 13:37:36;;;;;;;;;;;2.10;90.80;;;;;;5008543;28;87112;-49
2024/01/25 13:40:03;;;;;;;;;;;2.20;90.80;;;;;;5006410;28;87766;-49
2024/01/25 13:42:29;;;;;;;;;;;2.10;90.80;;;;;;5010777;28;88400;-48
2024/01/25 13:44:54;;;;;;;;;;;2.20;90.70;;;;;;5007938;28;86886;-48
2024/01/25 13:47:20;;;;;;;;;;;2.20;90.80;;;;;;5009193;28;86759;-48
2024/01/25 13:49:45;;;;;;;;;;;2.10;91.10;;;;;;5006688;28;87017;-49
2024/01/25 13:52:17;;;;;;;;;;;2.10;90.80;;;;;;5008726;28;87093;-48
2024/01/25 13:54:42;;;;;;;;;;;2.10;90.70;;;;;;5003935;28;89578;-49
2024/01/25 13:57:08;;;;;;;;;;;2.20;90.80;;;;;;5008108;28;87026;-48
2024/01/25 13:59:33;;;;;;;;;;;2.20;90.80;;;;;;5008304;28;86799;-49
2024/01/25 14:01:59;;;;;;;;;;;2.20;90.70;;;;;;5007956;28;87303;-48
2024/01/25 14:04:24;;;;;;;;;;;2.20;90.80;;;;;;5011463;28;87047;-48
2024/01/25 14:06:50;;;;;;;;;;;2.20;90.80;;;;;;5007095;28;87407;-48
2024/01/25 14:09:15;;;;;;;;;;;2.20;90.80;;;;;;5008057;28;87096;-48
2024/01/25 14:11:41;;;;;;;;;;;2.20;90.90;;;;;;5007416;28;86847;-49
2024/01/25 14:14:07;;;;;;;;;;;2.20;90.90;;;;;;5006686;28;88577;-51
2024/01/25 14:16:32;;;;;;;;;;;2.20;90.90;;;;;;5008450;28;87246;-47
2024/01/25 14:18:58;;;;;;;;;;;2.20;90.90;;;;;;5007302;28;87925;-49
2024/01/25 14:21:24;;;;;;;;;;;2.20;90.90;;;;;;5007468;28;88478;-47
2024/01/25 14:23:49;;;;;;;;;;;2.20;90.90;;;;;;5006902;28;87155;-48